createdAt,value
2023-04-03T00:00:41.392Z,100.00
2023-04-03T00:03:09.423Z,100.00
2023-04-03T00:05:37.041Z,100.00
2023-04-03T00:08:08.973Z,100.00
2023-04-03T00:10:37.045Z,100.00
2023-04-03T00:13:07.035Z,100.00
2023-04-03T00:15:34.766Z,100.00
2023-04-03T00:18:02.519Z,100.00
2023-04-03T00:20:30.288Z,100.00
2023-04-03T00:22:58.005Z,100.00
2023-04-03T00:25:25.779Z,100.00
2023-04-03T00:27:53.595Z,100.00
2023-04-03T00:30:23.757Z,100.00
2023-04-03T00:32:52.125Z,100.00
2023-04-03T00:35:20.663Z,100.00
2023-04-03T00:37:48.773Z,100.00
2023-04-03T00:40:17.268Z,100.00
2023-04-03T00:42:45.768Z,100.00
2023-04-03T00:45:27.172Z,100.00
2023-04-03T00:47:55.194Z,100.00
2023-04-03T00:50:22.908Z,100.00
2023-04-03T00:52:51.122Z,100.00
2023-04-03T00:55:18.973Z,100.00
2023-04-03T00:57:48.071Z,100.00
2023-04-03T01:00:18.763Z,100.00
2023-04-03T01:02:47.890Z,100.00
2023-04-03T01:05:18.477Z,100.00
2023-04-03T01:07:46.564Z,100.00
2023-04-03T01:10:16.962Z,100.00
2023-04-03T01:12:46.709Z,100.00
2023-04-03T01:15:16.118Z,100.00
2023-04-03T01:17:44.976Z,100.00
2023-04-03T01:20:34.058Z,100.00
2023-04-03T01:23:08.675Z,100.00
2023-04-03T01:25:37.401Z,100.00
2023-04-03T01:28:05.641Z,100.00
2023-04-03T01:30:35.593Z,100.00
2023-04-03T01:33:05.005Z,100.00
2023-04-03T01:35:32.709Z,100.00
2023-04-03T01:38:00.372Z,100.00
2023-04-03T01:40:28.292Z,100.00
2023-04-03T01:42:55.958Z,100.00
2023-04-03T01:45:23.714Z,100.00
2023-04-03T01:47:51.986Z,100.00
2023-04-03T01:50:21.135Z,100.00
2023-04-03T01:52:48.804Z,100.00
2023-04-03T01:55:16.737Z,100.00
2023-04-03T01:57:44.487Z,100.00
2023-04-03T02:00:13.056Z,100.00
2023-04-03T02:02:40.735Z,100.00
2023-04-03T02:05:08.956Z,100.00
2023-04-03T02:07:38.081Z,100.00
2023-04-03T02:10:06.053Z,100.00
2023-04-03T02:12:33.740Z,100.00
2023-04-03T02:15:01.907Z,100.00
2023-04-03T02:17:29.670Z,100.00
2023-04-03T02:20:00.195Z,100.00
2023-04-03T02:22:30.756Z,100.00
2023-04-03T02:24:59.805Z,100.00
2023-04-03T02:27:27.526Z,100.00
2023-04-03T02:29:55.298Z,100.00
2023-04-03T02:32:23.110Z,100.00
2023-04-03T02:34:50.856Z,100.00
2023-04-03T02:37:18.771Z,100.00
2023-04-03T02:39:46.440Z,100.00
2023-04-03T02:42:15.800Z,100.00
2023-04-03T02:44:43.520Z,100.00
2023-04-03T02:47:11.192Z,100.00
2023-04-03T02:49:38.901Z,100.00
2023-04-03T02:52:06.756Z,100.00
2023-04-03T02:54:34.437Z,100.00
2023-04-03T02:57:02.280Z,100.00
2023-04-03T02:59:31.562Z,100.00
2023-04-03T03:01:59.254Z,100.00
2023-04-03T03:04:26.967Z,100.00
2023-04-03T03:06:54.654Z,100.00
2023-04-03T03:09:22.347Z,100.00
2023-04-03T03:11:50.009Z,100.00
2023-04-03T03:14:17.752Z,100.00
2023-04-03T03:16:46.737Z,100.00
2023-04-03T03:19:14.427Z,100.00
2023-04-03T03:21:42.159Z,100.00
2023-04-03T03:24:09.996Z,100.00
2023-04-03T03:26:37.932Z,100.00
2023-04-03T03:29:05.628Z,100.00
2023-04-03T03:31:33.357Z,100.00
2023-04-03T03:34:02.581Z,100.00
2023-04-03T03:36:30.269Z,100.00
2023-04-03T03:38:57.959Z,100.00
2023-04-03T03:41:25.559Z,100.00
2023-04-03T03:43:53.306Z,100.00
2023-04-03T03:46:21.116Z,100.00
2023-04-03T03:48:48.762Z,100.00
2023-04-03T03:51:17.995Z,100.00
2023-04-03T03:53:45.687Z,100.00
2023-04-03T03:56:13.361Z,100.00
2023-04-03T03:58:41.023Z,100.00
2023-04-03T04:01:09.121Z,100.00
2023-04-03T04:03:37.061Z,100.00
2023-04-03T04:06:04.976Z,100.00
2023-04-03T04:08:34.280Z,100.00
2023-04-03T04:11:01.895Z,100.00
2023-04-03T04:13:29.558Z,100.00
2023-04-03T04:15:57.229Z,100.00
2023-04-03T04:18:25.104Z,100.00
2023-04-03T04:20:52.919Z,100.00
2023-04-03T04:23:20.976Z,100.00
2023-04-03T04:25:50.334Z,100.00
2023-04-03T04:28:18.190Z,100.00
2023-04-03T04:30:46.815Z,100.00
2023-04-03T04:33:15.189Z,100.00
2023-04-03T04:35:44.352Z,100.00
2023-04-03T04:38:12.100Z,100.00
2023-04-03T04:40:39.773Z,100.00
2023-04-03T04:43:08.841Z,100.00
2023-04-03T04:45:36.737Z,100.00
2023-04-03T04:48:04.685Z,100.00
2023-04-03T04:50:32.350Z,100.00
2023-04-03T04:53:00.032Z,100.00
2023-04-03T04:55:27.720Z,100.00
2023-04-03T04:57:55.656Z,100.00
2023-04-03T05:00:24.894Z,100.00
2023-04-03T05:02:52.609Z,100.00
2023-04-03T05:05:20.319Z,100.00
2023-04-03T05:07:48.048Z,100.00
2023-04-03T05:10:15.693Z,100.00
2023-04-03T05:12:43.381Z,100.00
2023-04-03T05:15:11.477Z,100.00
2023-04-03T05:17:40.552Z,100.00
2023-04-03T05:20:09.621Z,100.00
2023-04-03T05:22:37.341Z,100.00
2023-04-03T05:25:05.254Z,100.00
2023-04-03T05:27:32.952Z,100.00
2023-04-03T05:30:00.805Z,100.00
2023-04-03T05:32:29.117Z,100.00
2023-04-03T05:35:00.092Z,100.00
2023-04-03T05:37:28.839Z,100.00
2023-04-03T05:39:56.846Z,100.00
2023-04-03T05:42:24.460Z,100.00
2023-04-03T05:44:52.103Z,100.00
2023-04-03T05:47:19.826Z,100.00
2023-04-03T05:49:47.617Z,100.00
2023-04-03T05:52:20.585Z,100.00
2023-04-03T05:54:49.301Z,100.00
2023-04-03T05:57:17.476Z,100.00
2023-04-03T05:59:45.587Z,100.00
2023-04-03T06:02:14.680Z,100.00
2023-04-03T06:04:42.496Z,100.00
2023-04-03T06:07:13.801Z,100.00
2023-04-03T06:09:42.790Z,100.00
2023-04-03T06:12:10.626Z,100.00
2023-04-03T06:14:38.330Z,100.00
2023-04-03T06:17:07.135Z,100.00
2023-04-03T06:19:34.917Z,100.00
2023-04-03T06:22:02.653Z,100.00
2023-04-03T06:24:30.410Z,100.00
2023-04-03T06:26:59.825Z,100.00
2023-04-03T06:29:27.624Z,100.00
2023-04-03T06:31:55.468Z,100.00
2023-04-03T06:34:23.282Z,100.00
2023-04-03T06:36:51.685Z,100.00
2023-04-03T06:39:21.974Z,100.00
2023-04-03T06:41:49.723Z,100.00
2023-04-03T06:44:18.789Z,100.00
2023-04-03T06:46:47.581Z,100.00
2023-04-03T06:49:16.101Z,100.00
2023-04-03T06:51:43.794Z,100.00
2023-04-03T06:54:11.532Z,100.00
2023-04-03T06:56:39.152Z,100.00
2023-04-03T06:59:06.869Z,100.00
2023-04-03T07:01:36.247Z,100.00
2023-04-03T07:04:04.088Z,100.00
2023-04-03T07:06:32.856Z,100.00
2023-04-03T07:09:00.515Z,100.00
2023-04-03T07:11:28.293Z,100.00
2023-04-03T07:13:56.084Z,100.00
2023-04-03T07:16:23.782Z,100.00
2023-04-03T07:18:52.790Z,100.00
2023-04-03T07:21:20.510Z,100.00
2023-04-03T07:26:16.951Z,100.00
2023-04-03T07:28:45.380Z,100.00
2023-04-03T07:31:14.556Z,100.00
2023-04-03T07:33:43.039Z,100.00
2023-04-03T07:36:12.441Z,100.00
2023-04-03T07:38:40.120Z,100.00
2023-04-03T07:41:07.973Z,100.00
2023-04-03T07:43:36.137Z,100.00
2023-04-03T07:46:06.909Z,100.00
2023-04-03T07:48:36.054Z,100.00
2023-04-03T07:51:04.293Z,100.00
2023-04-03T07:53:33.878Z,100.00
2023-04-03T07:56:02.594Z,100.00
2023-04-03T07:58:30.673Z,100.00
2023-04-03T08:00:58.346Z,100.00
2023-04-03T08:03:26.119Z,100.00
2023-04-03T08:05:54.559Z,100.00
2023-04-03T08:08:23.415Z,100.00
2023-04-03T08:10:53.504Z,100.00
2023-04-03T08:13:21.460Z,100.00
2023-04-03T08:15:49.206Z,100.00
2023-04-03T08:18:17.266Z,100.00
2023-04-03T08:20:45.710Z,100.00
2023-04-03T08:23:13.623Z,100.00
2023-04-03T08:25:41.906Z,100.00
2023-04-03T08:28:11.823Z,100.00
2023-04-03T08:30:41.477Z,100.00
2023-04-03T08:33:09.593Z,100.00
2023-04-03T08:35:40.577Z,100.00
2023-04-03T08:38:08.617Z,100.00
2023-04-03T08:40:36.518Z,100.00
2023-04-03T08:43:18.853Z,100.00
2023-04-03T08:45:48.126Z,100.00
2023-04-03T08:48:17.713Z,100.00
2023-04-03T08:50:47.214Z,100.00
2023-04-03T08:53:16.887Z,100.00
2023-04-03T08:55:45.845Z,100.00
2023-04-03T08:58:17.418Z,100.00
2023-04-03T09:00:47.529Z,100.00
2023-04-03T09:03:16.170Z,100.00
2023-04-03T09:05:46.344Z,100.00
2023-04-03T09:08:18.569Z,100.00
2023-04-03T09:10:46.265Z,100.00
2023-04-03T09:13:23.454Z,100.00
2023-04-03T09:15:51.152Z,100.00
2023-04-03T09:18:22.103Z,100.00
2023-04-03T09:20:56.050Z,100.00
2023-04-03T09:23:27.402Z,99.71
2023-04-03T09:25:58.910Z,100.00
2023-04-03T09:28:29.327Z,100.00
2023-04-03T09:30:58.609Z,100.00
2023-04-03T09:33:26.591Z,100.00
2023-04-03T09:35:56.293Z,99.90
2023-04-03T09:38:25.120Z,97.93
2023-04-03T09:40:53.751Z,98.11
2023-04-03T09:43:24.166Z,97.27
2023-04-03T09:45:53.886Z,97.23
2023-04-03T09:48:22.477Z,97.24
2023-04-03T09:50:59.425Z,95.58
2023-04-03T09:53:37.855Z,97.28
2023-04-03T09:56:06.684Z,96.25
2023-04-03T09:58:49.106Z,96.79
2023-04-03T10:01:28.530Z,96.52
2023-04-03T10:04:12.450Z,96.76
2023-04-03T10:06:44.430Z,96.00
2023-04-03T10:09:20.703Z,95.20
2023-04-03T10:12:02.180Z,92.69
2023-04-03T10:14:30.360Z,94.22
2023-04-03T10:17:04.417Z,91.59
2023-04-03T10:19:38.961Z,92.34
2023-04-03T10:22:11.656Z,93.87
2023-04-03T10:24:46.547Z,93.53
2023-04-03T10:27:19.232Z,94.56
2023-04-03T10:29:51.694Z,93.73
2023-04-03T10:32:32.330Z,93.59
2023-04-03T10:35:05.531Z,92.60
2023-04-03T10:37:38.653Z,92.29
2023-04-03T10:40:13.487Z,94.60
2023-04-03T10:42:48.297Z,93.02
2023-04-03T10:45:23.863Z,92.12
2023-04-03T10:47:59.027Z,90.81
2023-04-03T10:50:36.034Z,91.46
2023-04-03T10:53:08.964Z,90.12
2023-04-03T10:55:39.028Z,90.68
2023-04-03T10:58:07.395Z,90.43
2023-04-03T11:00:38.941Z,90.24
2023-04-03T11:03:11.898Z,90.13
2023-04-03T11:05:43.225Z,88.37
2023-04-03T11:08:15.631Z,87.69
2023-04-03T11:10:44.067Z,88.06
2023-04-03T11:13:14.562Z,88.07
2023-04-03T11:15:43.284Z,87.37
2023-04-03T11:18:15.747Z,86.91
2023-04-03T11:20:45.173Z,86.06
2023-04-03T11:23:19.034Z,85.59
2023-04-03T11:25:49.592Z,85.61
2023-04-03T11:28:17.341Z,84.29
2023-04-03T11:30:48.305Z,83.33
2023-04-03T11:33:27.566Z,84.20
2023-04-03T11:35:57.797Z,83.30
2023-04-03T11:38:27.617Z,81.72
2023-04-03T11:40:56.277Z,81.30
2023-04-03T11:43:26.566Z,81.80
2023-04-03T11:45:59.944Z,81.36
2023-04-03T11:48:49.909Z,76.60
2023-04-03T11:51:47.900Z,76.12
2023-04-03T11:54:38.561Z,77.48
2023-04-03T11:57:40.348Z,76.81
2023-04-03T12:00:27.124Z,76.15
2023-04-03T12:02:55.160Z,75.21
2023-04-03T12:05:31.522Z,76.61
2023-04-03T12:08:14.049Z,75.39
2023-04-03T12:10:41.775Z,68.51
2023-04-03T12:13:17.722Z,70.01
2023-04-03T12:15:55.815Z,73.15
2023-04-03T12:18:53.826Z,69.80
2023-04-03T12:21:23.737Z,68.74
2023-04-03T12:24:12.179Z,69.41
2023-04-03T12:26:48.489Z,68.65
2023-04-03T12:29:19.608Z,65.25
2023-04-03T12:31:52.691Z,71.21
2023-04-03T12:34:40.125Z,67.99
2023-04-03T12:37:14.668Z,69.66
2023-04-03T12:39:55.038Z,66.27
2023-04-03T12:42:40.748Z,70.48
2023-04-03T12:45:15.315Z,70.38
2023-04-03T12:47:44.416Z,66.15
2023-04-03T12:50:22.342Z,69.77
2023-04-03T12:52:53.467Z,68.51
2023-04-03T12:55:22.745Z,68.48
2023-04-03T12:57:50.749Z,67.50
2023-04-03T13:00:22.967Z,66.16
2023-04-03T13:02:51.029Z,67.42
2023-04-03T13:05:20.291Z,62.06
2023-04-03T13:07:52.140Z,64.81
2023-04-03T13:10:20.899Z,63.86
2023-04-03T13:12:50.533Z,67.26
2023-04-03T13:15:19.971Z,63.29
2023-04-03T13:17:49.563Z,64.79
2023-04-03T13:20:19.983Z,66.13
2023-04-03T13:22:52.781Z,62.76
2023-04-03T13:25:22.472Z,58.20
2023-04-03T13:27:52.206Z,62.56
2023-04-03T13:30:31.914Z,58.65
2023-04-03T13:33:00.748Z,62.29
2023-04-03T13:35:29.919Z,63.18
2023-04-03T13:38:00.271Z,60.16
2023-04-03T13:40:30.160Z,64.00
2023-04-03T13:43:01.745Z,61.88
2023-04-03T13:45:30.536Z,64.27
2023-04-03T13:48:20.240Z,66.50
2023-04-03T13:51:01.453Z,66.76
2023-04-03T13:53:31.563Z,66.78
2023-04-03T13:56:07.326Z,66.30
2023-04-03T13:58:36.356Z,61.10
2023-04-03T14:01:09.723Z,59.27
2023-04-03T14:03:41.877Z,62.79
2023-04-03T14:06:12.345Z,62.60
2023-04-03T14:08:43.430Z,62.88
2023-04-03T14:11:15.327Z,62.37
2023-04-03T14:13:43.305Z,60.42
2023-04-03T14:16:16.164Z,64.68
2023-04-03T14:18:44.342Z,64.24
2023-04-03T14:21:13.387Z,59.85
2023-04-03T14:23:42.827Z,60.96
2023-04-03T14:26:12.750Z,58.23
2023-04-03T14:28:43.201Z,61.65
2023-04-03T14:31:12.047Z,62.56
2023-04-03T14:33:39.826Z,60.14
2023-04-03T14:36:13.652Z,59.91
2023-04-03T14:38:43.756Z,60.64
2023-04-03T14:41:16.896Z,60.59
2023-04-03T14:43:45.109Z,61.55
2023-04-03T14:46:14.835Z,61.02
2023-04-03T14:48:42.795Z,56.22
2023-04-03T14:51:11.847Z,59.88
2023-04-03T14:53:40.061Z,56.78
2023-04-03T14:56:14.387Z,58.38
2023-04-03T14:58:42.085Z,58.53
2023-04-03T15:01:11.685Z,59.40
2023-04-03T15:03:40.028Z,59.67
2023-04-03T15:06:07.901Z,58.19
2023-04-03T15:08:35.514Z,56.92
2023-04-03T15:11:03.133Z,58.98
2023-04-03T15:13:32.170Z,56.02
2023-04-03T15:15:59.867Z,54.71
2023-04-03T15:18:30.869Z,54.69
2023-04-03T15:20:58.828Z,57.80
2023-04-03T15:23:27.485Z,55.95
2023-04-03T15:25:55.731Z,54.53
2023-04-03T15:28:25.670Z,55.82
2023-04-03T15:30:55.116Z,55.42
2023-04-03T15:33:22.864Z,55.12
2023-04-03T15:35:50.730Z,55.92
2023-04-03T15:38:18.521Z,55.45
2023-04-03T15:40:48.017Z,55.61
2023-04-03T15:43:16.651Z,55.36
2023-04-03T15:45:44.883Z,56.52
2023-04-03T15:48:14.443Z,56.59
2023-04-03T15:50:42.310Z,56.67
2023-04-03T15:53:10.250Z,55.25
2023-04-03T15:55:39.214Z,56.49
2023-04-03T15:58:07.285Z,58.16
2023-04-03T16:00:35.203Z,56.93
2023-04-03T16:03:06.385Z,59.05
2023-04-03T16:05:36.936Z,59.66
2023-04-03T16:08:04.787Z,56.69
2023-04-03T16:10:32.622Z,57.71
2023-04-03T16:13:00.606Z,59.23
2023-04-03T16:15:28.522Z,55.48
2023-04-03T16:17:56.576Z,56.73
2023-04-03T16:20:24.404Z,58.93
2023-04-03T16:22:53.590Z,57.07
2023-04-03T16:25:21.777Z,58.47
2023-04-03T16:27:49.408Z,57.43
2023-04-03T16:30:17.043Z,54.51
2023-04-03T16:32:44.845Z,57.96
2023-04-03T16:35:15.267Z,59.74
2023-04-03T16:37:42.928Z,61.84
2023-04-03T16:40:13.099Z,61.86
2023-04-03T16:42:40.979Z,62.72
2023-04-03T16:45:09.166Z,62.69
2023-04-03T16:47:36.897Z,63.62
2023-04-03T16:50:05.071Z,63.90
2023-04-03T16:52:32.855Z,63.47
2023-04-03T16:55:00.535Z,64.83
2023-04-03T16:57:29.612Z,65.83
2023-04-03T16:59:57.349Z,65.33
2023-04-03T17:02:26.711Z,66.65
2023-04-03T17:04:54.835Z,67.50
2023-04-03T17:07:22.976Z,68.39
2023-04-03T17:09:50.750Z,67.38
2023-04-03T17:12:18.517Z,67.12
2023-04-03T17:14:47.828Z,67.72
2023-04-03T17:17:15.919Z,68.55
2023-04-03T17:19:44.491Z,68.94
2023-04-03T17:22:12.664Z,68.67
2023-04-03T17:24:40.578Z,68.88
2023-04-03T17:27:08.178Z,71.00
2023-04-03T17:29:35.931Z,70.65
2023-04-03T17:32:05.138Z,70.22
2023-04-03T17:34:33.694Z,71.78
2023-04-03T17:37:01.617Z,72.41
2023-04-03T17:39:29.326Z,74.49
2023-04-03T17:41:57.002Z,75.00
2023-04-03T17:44:24.600Z,78.01
2023-04-03T17:46:52.292Z,77.41
2023-04-03T17:49:22.495Z,79.39
2023-04-03T17:51:50.440Z,78.17
2023-04-03T17:54:18.158Z,77.96
2023-04-03T17:56:48.227Z,76.22
2023-04-03T17:59:16.644Z,75.40
2023-04-03T18:01:45.248Z,75.95
2023-04-03T18:04:13.249Z,75.92
2023-04-03T18:06:43.842Z,76.65
2023-04-03T18:09:14.704Z,77.17
2023-04-03T18:11:43.122Z,78.77
2023-04-03T18:14:11.346Z,81.54
2023-04-03T18:16:39.157Z,82.74
2023-04-03T18:19:21.820Z,81.87
2023-04-03T18:21:52.341Z,80.71
2023-04-03T18:24:21.167Z,81.21
2023-04-03T18:26:50.106Z,80.52
2023-04-03T18:29:18.022Z,81.24
2023-04-03T18:31:47.483Z,81.17
2023-04-03T18:34:15.253Z,83.39
2023-04-03T18:36:42.948Z,84.17
2023-04-03T18:39:12.065Z,84.13
2023-04-03T18:41:40.185Z,83.48
2023-04-03T18:44:09.637Z,84.11
2023-04-03T18:49:11.430Z,84.31
2023-04-03T18:51:40.172Z,83.99
2023-04-03T18:54:09.978Z,83.38
2023-04-03T18:56:39.675Z,83.41
2023-04-03T18:59:07.436Z,85.02
2023-04-03T19:01:35.427Z,84.43
2023-04-03T19:04:03.365Z,84.76
2023-04-03T19:06:31.094Z,84.90
2023-04-03T19:09:00.490Z,85.97
2023-04-03T19:11:30.213Z,87.63
2023-04-03T19:14:14.483Z,87.47
2023-04-03T19:16:43.405Z,88.12
2023-04-03T19:19:11.235Z,88.42
2023-04-03T19:21:41.409Z,89.11
2023-04-03T19:24:09.834Z,89.08
2023-04-03T19:26:37.620Z,90.11
2023-04-03T19:29:06.633Z,90.58
2023-04-03T19:31:35.131Z,90.92
2023-04-03T19:34:04.013Z,90.97
2023-04-03T19:36:31.997Z,91.64
2023-04-03T19:38:59.644Z,91.68
2023-04-03T19:41:29.344Z,91.38
2023-04-03T19:43:57.365Z,91.44
2023-04-03T19:46:27.106Z,90.64
2023-04-03T19:48:55.023Z,89.91
2023-04-03T19:51:22.817Z,90.02
2023-04-03T19:53:50.490Z,90.29
2023-04-03T19:56:18.263Z,89.86
2023-04-03T19:58:46.061Z,90.95
2023-04-03T20:01:13.827Z,91.61
2023-04-03T20:03:42.981Z,91.47
2023-04-03T20:06:10.634Z,91.94
2023-04-03T20:08:39.480Z,93.58
2023-04-03T20:11:07.151Z,94.06
2023-04-03T20:13:34.794Z,94.57
2023-04-03T20:16:03.254Z,94.86
2023-04-03T20:18:31.315Z,95.47
2023-04-03T20:21:01.660Z,97.11
2023-04-03T20:23:29.726Z,97.08
2023-04-03T20:26:09.173Z,96.73
2023-04-03T20:28:39.002Z,96.48
2023-04-03T20:31:07.982Z,96.34
2023-04-03T20:33:37.208Z,97.08
2023-04-03T20:36:06.544Z,97.35
2023-04-03T20:38:34.230Z,97.33
2023-04-03T20:41:01.895Z,99.06
2023-04-03T20:43:29.600Z,100.00
2023-04-03T20:45:57.356Z,99.66
2023-04-03T20:48:25.100Z,99.99
2023-04-03T20:50:52.963Z,99.76
2023-04-03T20:53:22.039Z,99.71
2023-04-03T20:55:55.900Z,99.52
2023-04-03T20:58:25.072Z,99.66
2023-04-03T21:00:52.784Z,100.00
2023-04-03T21:03:20.683Z,100.00
2023-04-03T21:05:48.425Z,100.00
2023-04-03T21:08:36.084Z,99.90
2023-04-03T21:11:23.702Z,100.00
2023-04-03T21:14:10.016Z,100.00
2023-04-03T21:16:38.721Z,100.00
2023-04-03T21:19:10.748Z,100.00
2023-04-03T21:21:38.753Z,100.00
2023-04-03T21:24:10.169Z,100.00
2023-04-03T21:26:39.340Z,100.00
2023-04-03T21:29:07.715Z,100.00
2023-04-03T21:31:52.944Z,100.00
2023-04-03T21:34:23.520Z,100.00
2023-04-03T21:36:51.784Z,100.00
2023-04-03T21:39:19.857Z,100.00
2023-04-03T21:41:47.504Z,100.00
2023-04-03T21:44:15.128Z,100.00
2023-04-03T21:46:43.125Z,100.00
2023-04-03T21:49:10.897Z,100.00
2023-04-03T21:51:40.014Z,100.00
2023-04-03T21:54:07.718Z,100.00
2023-04-03T21:56:35.324Z,100.00
2023-04-03T21:59:03.569Z,100.00
2023-04-03T22:01:32.493Z,100.00
2023-04-03T22:04:01.840Z,100.00
2023-04-03T22:06:29.955Z,100.00
2023-04-03T22:08:59.015Z,100.00
2023-04-03T22:11:27.189Z,100.00
2023-04-03T22:13:56.040Z,100.00
2023-04-03T22:16:24.318Z,100.00
2023-04-03T22:18:52.968Z,100.00
2023-04-03T22:21:21.459Z,100.00
2023-04-03T22:23:49.246Z,100.00
2023-04-03T22:26:18.393Z,100.00
2023-04-03T22:28:46.738Z,100.00
2023-04-03T22:31:14.983Z,100.00
2023-04-03T22:33:43.314Z,100.00
2023-04-03T22:36:11.857Z,100.00
2023-04-03T22:38:40.312Z,100.00
2023-04-03T22:41:08.875Z,100.00
2023-04-03T22:43:38.422Z,100.00
2023-04-03T22:46:06.885Z,100.00
2023-04-03T22:48:34.622Z,100.00
2023-04-03T22:51:02.312Z,100.00
2023-04-03T22:53:30.046Z,100.00
2023-04-03T22:55:58.113Z,100.00
2023-04-03T22:58:27.648Z,100.00
2023-04-03T23:00:57.443Z,100.00
2023-04-03T23:03:25.567Z,100.00
2023-04-03T23:05:54.236Z,100.00
2023-04-03T23:08:21.897Z,100.00
2023-04-03T23:10:49.575Z,100.00
2023-04-03T23:13:17.222Z,100.00
2023-04-03T23:15:44.937Z,100.00
2023-04-03T23:18:13.967Z,100.00
2023-04-03T23:20:41.914Z,100.00
2023-04-03T23:23:10.700Z,100.00
2023-04-03T23:25:38.652Z,100.00
2023-04-03T23:28:06.841Z,100.00
2023-04-03T23:30:34.588Z,100.00
2023-04-03T23:33:02.335Z,100.00
2023-04-03T23:35:32.112Z,100.00
2023-04-03T23:37:59.832Z,100.00
2023-04-03T23:40:28.095Z,100.00
2023-04-03T23:42:56.083Z,100.00
2023-04-03T23:45:23.774Z,100.00
2023-04-03T23:47:51.486Z,100.00
2023-04-03T23:50:19.263Z,100.00
2023-04-03T23:52:48.580Z,100.00
2023-04-03T23:55:16.341Z,100.00
2023-04-03T23:57:44.065Z,100.00
